Terminal Aerodrome Forecast
Issued by NWS

Home | Current Version | Previous Version | Graphics & Text | Print | Product List | Glossary On
Versions: 1 2 3 4 5 6 7 8 9 10 11 12 13 14 15
708
FTUS43 KBIS 172324
TAFMOT
TAF
KMOT 172324Z 1800/1824 25015KT P6SM FEW250 WS020/30045KT
     FM180700 25013KT P6SM FEW250
     FM181300 24010KT P6SM SCT250=

USA.gov is the U.S. government's official web portal to all federal, state and local government web resources and services.